sensor_id;sensor_type;location;lat;lon;timestamp;P1;durP1;ratioP1;P2;durP2;ratioP2
78508;SDS011;67802;50.846;7.958;2024-03-17T00:00:29;2.78;;;1.25;;
78508;SDS011;67802;50.846;7.958;2024-03-17T00:02:55;2.70;;;1.30;;
78508;SDS011;67802;50.846;7.958;2024-03-17T00:05:21;6.25;;;1.40;;
78508;SDS011;67802;50.846;7.958;2024-03-17T00:07:46;2.70;;;1.20;;
78508;SDS011;67802;50.846;7.958;2024-03-17T00:10:12;2.57;;;1.23;;
78508;SDS011;67802;50.846;7.958;2024-03-17T00:12:37;2.55;;;1.23;;
78508;SDS011;67802;50.846;7.958;2024-03-17T00:15:04;2.78;;;1.20;;
78508;SDS011;67802;50.846;7.958;2024-03-17T00:17:30;4.03;;;1.30;;
78508;SDS011;67802;50.846;7.958;2024-03-17T00:19:55;2.88;;;1.30;;
78508;SDS011;67802;50.846;7.958;2024-03-17T00:22:20;3.20;;;1.30;;
78508;SDS011;67802;50.846;7.958;2024-03-17T00:24:46;3.38;;;1.40;;
78508;SDS011;67802;50.846;7.958;2024-03-17T00:27:11;2.88;;;1.48;;
78508;SDS011;67802;50.846;7.958;2024-03-17T00:29:39;2.85;;;1.27;;
78508;SDS011;67802;50.846;7.958;2024-03-17T00:32:05;2.95;;;1.38;;
78508;SDS011;67802;50.846;7.958;2024-03-17T00:34:31;2.92;;;1.25;;
78508;SDS011;67802;50.846;7.958;2024-03-17T00:36:57;4.13;;;1.52;;
78508;SDS011;67802;50.846;7.958;2024-03-17T00:39:22;3.28;;;1.30;;
78508;SDS011;67802;50.846;7.958;2024-03-17T00:41:48;3.50;;;1.40;;
78508;SDS011;67802;50.846;7.958;2024-03-17T00:44:13;3.33;;;1.40;;
78508;SDS011;67802;50.846;7.958;2024-03-17T00:46:39;3.97;;;1.50;;
78508;SDS011;67802;50.846;7.958;2024-03-17T00:49:07;4.20;;;1.50;;
78508;SDS011;67802;50.846;7.958;2024-03-17T00:51:32;3.83;;;1.50;;
78508;SDS011;67802;50.846;7.958;2024-03-17T00:53:58;4.27;;;1.50;;
78508;SDS011;67802;50.846;7.958;2024-03-17T00:56:23;3.08;;;1.17;;
78508;SDS011;67802;50.846;7.958;2024-03-17T00:58:48;3.17;;;1.13;;
78508;SDS011;67802;50.846;7.958;2024-03-17T01:01:16;3.42;;;1.45;;
78508;SDS011;67802;50.846;7.958;2024-03-17T01:03:41;2.42;;;1.20;;
78508;SDS011;67802;50.846;7.958;2024-03-17T01:06:07;2.78;;;1.23;;
78508;SDS011;67802;50.846;7.958;2024-03-17T01:08:32;3.55;;;1.40;;
78508;SDS011;67802;50.846;7.958;2024-03-17T01:10:58;3.20;;;1.42;;
78508;SDS011;67802;50.846;7.958;2024-03-17T01:13:23;3.40;;;1.50;;
78508;SDS011;67802;50.846;7.958;2024-03-17T01:15:52;2.92;;;1.35;;
78508;SDS011;67802;50.846;7.958;2024-03-17T01:18:17;2.63;;;1.30;;
78508;SDS011;67802;50.846;7.958;2024-03-17T01:20:43;2.97;;;1.30;;
78508;SDS011;67802;50.846;7.958;2024-03-17T01:23:09;4.07;;;1.48;;
78508;SDS011;67802;50.846;7.958;2024-03-17T01:25:34;3.33;;;1.48;;
78508;SDS011;67802;50.846;7.958;2024-03-17T01:28:03;2.92;;;1.27;;
78508;SDS011;67802;50.846;7.958;2024-03-17T01:30:29;2.90;;;1.25;;
78508;SDS011;67802;50.846;7.958;2024-03-17T01:32:54;3.50;;;1.33;;
78508;SDS011;67802;50.846;7.958;2024-03-17T01:35:20;3.03;;;1.40;;
78508;SDS011;67802;50.846;7.958;2024-03-17T01:37:45;3.40;;;1.20;;
78508;SDS011;67802;50.846;7.958;2024-03-17T01:40:11;3.05;;;1.30;;
78508;SDS011;67802;50.846;7.958;2024-03-17T01:42:40;3.40;;;1.30;;
78508;SDS011;67802;50.846;7.958;2024-03-17T01:48:00;3.75;;;1.50;;
78508;SDS011;67802;50.846;7.958;2024-03-17T01:50:37;3.70;;;1.63;;
78508;SDS011;67802;50.846;7.958;2024-03-17T01:53:04;3.38;;;1.45;;
78508;SDS011;67802;50.846;7.958;2024-03-17T01:55:35;2.95;;;1.40;;
78508;SDS011;67802;50.846;7.958;2024-03-17T01:58:05;3.45;;;1.30;;
78508;SDS011;67802;50.846;7.958;2024-03-17T02:00:35;3.55;;;1.50;;
78508;SDS011;67802;50.846;7.958;2024-03-17T02:03:08;3.65;;;1.45;;
78508;SDS011;67802;50.846;7.958;2024-03-17T02:05:34;3.35;;;1.55;;
78508;SDS011;67802;50.846;7.958;2024-03-17T02:08:02;3.90;;;1.50;;
78508;SDS011;67802;50.846;7.958;2024-03-17T02:10:28;3.40;;;1.33;;
78508;SDS011;67802;50.846;7.958;2024-03-17T02:12:54;3.10;;;1.40;;
78508;SDS011;67802;50.846;7.958;2024-03-17T02:15:19;3.78;;;1.77;;
78508;SDS011;67802;50.846;7.958;2024-03-17T02:17:45;4.28;;;1.45;;
78508;SDS011;67802;50.846;7.958;2024-03-17T02:20:10;3.33;;;1.45;;
78508;SDS011;67802;50.846;7.958;2024-03-17T02:22:36;3.45;;;1.50;;
78508;SDS011;67802;50.846;7.958;2024-03-17T02:25:02;3.85;;;1.50;;
78508;SDS011;67802;50.846;7.958;2024-03-17T02:27:28;3.50;;;1.38;;
78508;SDS011;67802;50.846;7.958;2024-03-17T02:29:54;4.25;;;1.60;;
78508;SDS011;67802;50.846;7.958;2024-03-17T02:32:20;3.35;;;1.50;;
78508;SDS011;67802;50.846;7.958;2024-03-17T02:34:47;3.10;;;1.33;;
78508;SDS011;67802;50.846;7.958;2024-03-17T02:37:12;3.80;;;1.67;;
78508;SDS011;67802;50.846;7.958;2024-03-17T02:39:38;4.20;;;1.60;;
78508;SDS011;67802;50.846;7.958;2024-03-17T02:42:04;3.75;;;1.60;;
78508;SDS011;67802;50.846;7.958;2024-03-17T02:44:31;5.00;;;1.70;;
78508;SDS011;67802;50.846;7.958;2024-03-17T02:46:58;4.03;;;1.80;;
78508;SDS011;67802;50.846;7.958;2024-03-17T02:49:24;3.10;;;1.48;;
78508;SDS011;67802;50.846;7.958;2024-03-17T02:51:51;4.35;;;1.67;;
78508;SDS011;67802;50.846;7.958;2024-03-17T02:54:17;3.80;;;1.80;;
78508;SDS011;67802;50.846;7.958;2024-03-17T02:56:42;4.47;;;1.95;;
78508;SDS011;67802;50.846;7.958;2024-03-17T02:59:07;3.75;;;1.45;;
78508;SDS011;67802;50.846;7.958;2024-03-17T03:01:33;4.00;;;1.63;;
78508;SDS011;67802;50.846;7.958;2024-03-17T03:03:58;3.25;;;1.40;;
78508;SDS011;67802;50.846;7.958;2024-03-17T03:06:23;3.60;;;1.67;;
78508;SDS011;67802;50.846;7.958;2024-03-17T03:08:50;3.10;;;1.50;;
78508;SDS011;67802;50.846;7.958;2024-03-17T03:11:16;3.80;;;1.60;;
78508;SDS011;67802;50.846;7.958;2024-03-17T03:13:42;3.67;;;1.55;;
78508;SDS011;67802;50.846;7.958;2024-03-17T03:16:11;4.03;;;1.70;;
78508;SDS011;67802;50.846;7.958;2024-03-17T03:18:41;4.25;;;1.48;;
78508;SDS011;67802;50.846;7.958;2024-03-17T03:21:09;3.90;;;1.65;;
78508;SDS011;67802;50.846;7.958;2024-03-17T03:23:34;4.10;;;1.60;;
78508;SDS011;67802;50.846;7.958;2024-03-17T03:26:00;3.55;;;1.48;;
78508;SDS011;67802;50.846;7.958;2024-03-17T03:28:28;3.78;;;1.42;;
78508;SDS011;67802;50.846;7.958;2024-03-17T03:30:55;3.35;;;1.50;;
78508;SDS011;67802;50.846;7.958;2024-03-17T03:33:20;3.13;;;1.40;;
78508;SDS011;67802;50.846;7.958;2024-03-17T03:35:46;3.80;;;1.60;;
78508;SDS011;67802;50.846;7.958;2024-03-17T03:38:12;3.15;;;1.45;;
78508;SDS011;67802;50.846;7.958;2024-03-17T03:40:39;3.22;;;1.42;;
78508;SDS011;67802;50.846;7.958;2024-03-17T03:43:04;3.25;;;1.50;;
78508;SDS011;67802;50.846;7.958;2024-03-17T03:45:30;3.33;;;1.50;;
78508;SDS011;67802;50.846;7.958;2024-03-17T03:47:55;3.63;;;1.60;;
78508;SDS011;67802;50.846;7.958;2024-03-17T03:50:21;3.67;;;1.70;;
78508;SDS011;67802;50.846;7.958;2024-03-17T03:52:47;3.25;;;1.42;;
78508;SDS011;67802;50.846;7.958;2024-03-17T03:55:12;3.63;;;1.50;;
78508;SDS011;67802;50.846;7.958;2024-03-17T03:57:42;3.22;;;1.50;;
78508;SDS011;67802;50.846;7.958;2024-03-17T04:00:07;4.15;;;1.70;;
78508;SDS011;67802;50.846;7.958;2024-03-17T04:02:41;3.22;;;1.30;;
78508;SDS011;67802;50.846;7.958;2024-03-17T04:05:08;3.55;;;1.52;;
78508;SDS011;67802;50.846;7.958;2024-03-17T04:07:34;3.88;;;1.67;;
78508;SDS011;67802;50.846;7.958;2024-03-17T04:10:00;3.17;;;1.35;;
78508;SDS011;67802;50.846;7.958;2024-03-17T04:12:26;2.95;;;1.45;;
78508;SDS011;67802;50.846;7.958;2024-03-17T04:14:52;3.30;;;1.38;;
78508;SDS011;67802;50.846;7.958;2024-03-17T04:17:21;3.30;;;1.42;;
78508;SDS011;67802;50.846;7.958;2024-03-17T04:19:48;3.08;;;1.50;;
78508;SDS011;67802;50.846;7.958;2024-03-17T04:22:14;3.15;;;1.50;;
78508;SDS011;67802;50.846;7.958;2024-03-17T04:24:40;3.63;;;1.55;;
78508;SDS011;67802;50.846;7.958;2024-03-17T04:27:05;3.20;;;1.40;;
78508;SDS011;67802;50.846;7.958;2024-03-17T04:29:30;3.83;;;1.50;;
78508;SDS011;67802;50.846;7.958;2024-03-17T04:31:56;3.05;;;1.42;;
78508;SDS011;67802;50.846;7.958;2024-03-17T04:34:21;4.72;;;1.65;;
78508;SDS011;67802;50.846;7.958;2024-03-17T04:36:46;2.90;;;1.40;;
78508;SDS011;67802;50.846;7.958;2024-03-17T04:39:12;3.07;;;1.50;;
78508;SDS011;67802;50.846;7.958;2024-03-17T04:41:37;5.95;;;1.88;;
78508;SDS011;67802;50.846;7.958;2024-03-17T04:44:05;3.30;;;1.50;;
78508;SDS011;67802;50.846;7.958;2024-03-17T04:46:31;3.33;;;1.50;;
78508;SDS011;67802;50.846;7.958;2024-03-17T04:48:57;4.05;;;1.80;;
78508;SDS011;67802;50.846;7.958;2024-03-17T04:51:23;3.67;;;1.50;;
78508;SDS011;67802;50.846;7.958;2024-03-17T04:53:48;2.72;;;1.40;;
78508;SDS011;67802;50.846;7.958;2024-03-17T04:56:13;3.33;;;1.45;;
78508;SDS011;67802;50.846;7.958;2024-03-17T04:58:38;3.60;;;1.60;;
78508;SDS011;67802;50.846;7.958;2024-03-17T05:01:05;3.20;;;1.55;;
78508;SDS011;67802;50.846;7.958;2024-03-17T05:03:31;3.60;;;1.60;;
78508;SDS011;67802;50.846;7.958;2024-03-17T05:06:03;3.30;;;1.50;;
78508;SDS011;67802;50.846;7.958;2024-03-17T05:08:30;3.45;;;1.60;;
78508;SDS011;67802;50.846;7.958;2024-03-17T05:11:00;3.38;;;1.60;;
78508;SDS011;67802;50.846;7.958;2024-03-17T05:13:29;3.90;;;1.70;;
78508;SDS011;67802;50.846;7.958;2024-03-17T05:15:55;3.33;;;1.50;;
78508;SDS011;67802;50.846;7.958;2024-03-17T05:18:21;3.58;;;1.50;;
78508;SDS011;67802;50.846;7.958;2024-03-17T05:20:47;3.58;;;1.42;;
78508;SDS011;67802;50.846;7.958;2024-03-17T05:23:21;3.30;;;1.42;;
78508;SDS011;67802;50.846;7.958;2024-03-17T05:25:51;3.80;;;1.40;;
78508;SDS011;67802;50.846;7.958;2024-03-17T05:28:16;2.85;;;1.25;;
78508;SDS011;67802;50.846;7.958;2024-03-17T05:30:42;3.57;;;1.60;;
78508;SDS011;67802;50.846;7.958;2024-03-17T05:33:07;4.35;;;1.50;;
78508;SDS011;67802;50.846;7.958;2024-03-17T05:35:32;3.00;;;1.37;;
78508;SDS011;67802;50.846;7.958;2024-03-17T05:37:58;3.53;;;1.60;;
78508;SDS011;67802;50.846;7.958;2024-03-17T05:40:23;3.67;;;1.70;;
78508;SDS011;67802;50.846;7.958;2024-03-17T05:42:48;3.60;;;1.50;;
78508;SDS011;67802;50.846;7.958;2024-03-17T05:45:15;3.63;;;1.67;;
78508;SDS011;67802;50.846;7.958;2024-03-17T05:47:41;4.22;;;1.92;;
78508;SDS011;67802;50.846;7.958;2024-03-17T05:50:07;3.65;;;1.45;;
78508;SDS011;67802;50.846;7.958;2024-03-17T05:52:32;3.75;;;1.58;;
78508;SDS011;67802;50.846;7.958;2024-03-17T05:54:57;3.75;;;1.50;;
78508;SDS011;67802;50.846;7.958;2024-03-17T05:57:23;3.08;;;1.38;;
78508;SDS011;67802;50.846;7.958;2024-03-17T05:59:49;3.80;;;1.80;;
78508;SDS011;67802;50.846;7.958;2024-03-17T06:02:14;3.60;;;1.42;;
78508;SDS011;67802;50.846;7.958;2024-03-17T06:04:41;3.95;;;1.70;;
78508;SDS011;67802;50.846;7.958;2024-03-17T06:07:06;3.35;;;1.48;;
78508;SDS011;67802;50.846;7.958;2024-03-17T06:09:31;3.53;;;1.55;;
78508;SDS011;67802;50.846;7.958;2024-03-17T06:11:57;3.50;;;1.40;;
78508;SDS011;67802;50.846;7.958;2024-03-17T06:14:22;2.90;;;1.38;;
78508;SDS011;67802;50.846;7.958;2024-03-17T06:16:47;3.67;;;1.63;;
78508;SDS011;67802;50.846;7.958;2024-03-17T06:19:12;2.73;;;1.27;;
78508;SDS011;67802;50.846;7.958;2024-03-17T06:21:38;3.43;;;1.60;;
78508;SDS011;67802;50.846;7.958;2024-03-17T06:24:04;3.72;;;1.60;;
78508;SDS011;67802;50.846;7.958;2024-03-17T06:26:31;3.42;;;1.60;;
78508;SDS011;67802;50.846;7.958;2024-03-17T06:28:59;4.15;;;1.50;;
78508;SDS011;67802;50.846;7.958;2024-03-17T06:31:24;3.58;;;1.50;;
78508;SDS011;67802;50.846;7.958;2024-03-17T06:33:50;4.22;;;1.58;;
78508;SDS011;67802;50.846;7.958;2024-03-17T06:36:15;3.45;;;1.30;;
78508;SDS011;67802;50.846;7.958;2024-03-17T06:38:41;4.03;;;1.70;;
78508;SDS011;67802;50.846;7.958;2024-03-17T06:41:06;3.33;;;1.52;;
78508;SDS011;67802;50.846;7.958;2024-03-17T06:43:31;3.05;;;1.40;;
78508;SDS011;67802;50.846;7.958;2024-03-17T06:45:58;4.50;;;1.60;;
78508;SDS011;67802;50.846;7.958;2024-03-17T06:48:25;3.00;;;1.33;;
78508;SDS011;67802;50.846;7.958;2024-03-17T06:50:51;3.20;;;1.42;;
78508;SDS011;67802;50.846;7.958;2024-03-17T06:53:17;3.08;;;1.40;;
78508;SDS011;67802;50.846;7.958;2024-03-17T06:55:44;3.35;;;1.40;;
78508;SDS011;67802;50.846;7.958;2024-03-17T06:58:11;3.13;;;1.48;;
78508;SDS011;67802;50.846;7.958;2024-03-17T07:00:36;3.45;;;1.38;;
78508;SDS011;67802;50.846;7.958;2024-03-17T07:03:01;4.13;;;1.70;;
78508;SDS011;67802;50.846;7.958;2024-03-17T07:05:27;3.10;;;1.40;;
78508;SDS011;67802;50.846;7.958;2024-03-17T07:07:55;3.35;;;1.35;;
78508;SDS011;67802;50.846;7.958;2024-03-17T07:10:20;3.25;;;1.40;;
78508;SDS011;67802;50.846;7.958;2024-03-17T07:12:45;3.40;;;1.50;;
78508;SDS011;67802;50.846;7.958;2024-03-17T07:15:11;4.25;;;1.63;;
78508;SDS011;67802;50.846;7.958;2024-03-17T07:17:36;3.33;;;1.48;;
78508;SDS011;67802;50.846;7.958;2024-03-17T07:20:02;4.55;;;1.52;;
78508;SDS011;67802;50.846;7.958;2024-03-17T07:22:28;3.90;;;1.70;;
78508;SDS011;67802;50.846;7.958;2024-03-17T07:24:54;3.65;;;1.50;;
78508;SDS011;67802;50.846;7.958;2024-03-17T07:27:25;3.85;;;1.50;;
78508;SDS011;67802;50.846;7.958;2024-03-17T07:29:50;3.20;;;1.53;;
78508;SDS011;67802;50.846;7.958;2024-03-17T07:32:15;3.60;;;1.50;;
78508;SDS011;67802;50.846;7.958;2024-03-17T07:34:41;3.92;;;1.70;;
78508;SDS011;67802;50.846;7.958;2024-03-17T07:37:06;3.40;;;1.40;;
78508;SDS011;67802;50.846;7.958;2024-03-17T07:39:31;3.50;;;1.60;;
78508;SDS011;67802;50.846;7.958;2024-03-17T07:42:01;3.50;;;1.48;;
78508;SDS011;67802;50.846;7.958;2024-03-17T07:44:27;3.95;;;1.48;;
78508;SDS011;67802;50.846;7.958;2024-03-17T07:47:01;3.63;;;1.50;;
78508;SDS011;67802;50.846;7.958;2024-03-17T07:49:28;3.03;;;1.48;;
78508;SDS011;67802;50.846;7.958;2024-03-17T07:51:54;3.67;;;1.40;;
78508;SDS011;67802;50.846;7.958;2024-03-17T07:54:19;3.97;;;1.60;;
78508;SDS011;67802;50.846;7.958;2024-03-17T07:56:45;5.90;;;1.88;;
78508;SDS011;67802;50.846;7.958;2024-03-17T07:59:11;3.15;;;1.52;;
78508;SDS011;67802;50.846;7.958;2024-03-17T08:01:39;3.08;;;1.40;;
78508;SDS011;67802;50.846;7.958;2024-03-17T08:04:04;4.07;;;1.70;;
78508;SDS011;67802;50.846;7.958;2024-03-17T08:06:29;3.13;;;1.38;;
78508;SDS011;67802;50.846;7.958;2024-03-17T08:08:55;2.80;;;1.40;;
78508;SDS011;67802;50.846;7.958;2024-03-17T08:11:20;3.75;;;1.50;;
78508;SDS011;67802;50.846;7.958;2024-03-17T08:13:45;3.92;;;1.50;;
78508;SDS011;67802;50.846;7.958;2024-03-17T08:16:11;3.43;;;1.33;;
78508;SDS011;67802;50.846;7.958;2024-03-17T08:18:39;4.68;;;1.70;;
78508;SDS011;67802;50.846;7.958;2024-03-17T08:21:05;3.92;;;1.55;;
78508;SDS011;67802;50.846;7.958;2024-03-17T08:23:31;3.80;;;1.60;;
78508;SDS011;67802;50.846;7.958;2024-03-17T08:25:58;3.97;;;1.52;;
78508;SDS011;67802;50.846;7.958;2024-03-17T08:28:25;3.78;;;1.42;;
78508;SDS011;67802;50.846;7.958;2024-03-17T08:30:55;2.75;;;1.35;;
78508;SDS011;67802;50.846;7.958;2024-03-17T08:33:24;2.97;;;1.33;;
78508;SDS011;67802;50.846;7.958;2024-03-17T08:36:06;2.95;;;1.40;;
78508;SDS011;67802;50.846;7.958;2024-03-17T08:38:32;3.00;;;1.40;;
78508;SDS011;67802;50.846;7.958;2024-03-17T08:41:02;2.92;;;1.40;;
78508;SDS011;67802;50.846;7.958;2024-03-17T08:43:31;2.50;;;1.30;;
78508;SDS011;67802;50.846;7.958;2024-03-17T08:45:58;3.40;;;1.40;;
78508;SDS011;67802;50.846;7.958;2024-03-17T08:48:26;3.13;;;1.50;;
78508;SDS011;67802;50.846;7.958;2024-03-17T08:50:52;2.63;;;1.23;;
78508;SDS011;67802;50.846;7.958;2024-03-17T08:53:19;3.72;;;1.42;;
78508;SDS011;67802;50.846;7.958;2024-03-17T08:55:44;3.15;;;1.50;;
78508;SDS011;67802;50.846;7.958;2024-03-17T08:58:10;3.35;;;1.52;;
78508;SDS011;67802;50.846;7.958;2024-03-17T09:00:35;3.60;;;1.70;;
78508;SDS011;67802;50.846;7.958;2024-03-17T09:03:01;3.00;;;1.30;;
78508;SDS011;67802;50.846;7.958;2024-03-17T09:05:27;3.45;;;1.40;;
78508;SDS011;67802;50.846;7.958;2024-03-17T09:07:52;3.03;;;1.30;;
78508;SDS011;67802;50.846;7.958;2024-03-17T09:10:17;2.83;;;1.30;;
78508;SDS011;67802;50.846;7.958;2024-03-17T09:12:43;2.90;;;1.33;;
78508;SDS011;67802;50.846;7.958;2024-03-17T09:15:08;3.10;;;1.50;;
78508;SDS011;67802;50.846;7.958;2024-03-17T09:17:36;2.92;;;1.30;;
78508;SDS011;67802;50.846;7.958;2024-03-17T09:20:02;2.53;;;1.20;;
78508;SDS011;67802;50.846;7.958;2024-03-17T09:22:27;2.92;;;1.23;;
78508;SDS011;67802;50.846;7.958;2024-03-17T09:24:54;2.08;;;1.02;;
78508;SDS011;67802;50.846;7.958;2024-03-17T09:27:19;2.00;;;1.10;;
78508;SDS011;67802;50.846;7.958;2024-03-17T09:29:47;2.53;;;1.15;;
78508;SDS011;67802;50.846;7.958;2024-03-17T09:32:12;2.47;;;1.20;;
78508;SDS011;67802;50.846;7.958;2024-03-17T09:34:42;2.85;;;1.30;;
78508;SDS011;67802;50.846;7.958;2024-03-17T09:37:12;2.35;;;1.10;;
78508;SDS011;67802;50.846;7.958;2024-03-17T09:39:37;3.25;;;1.30;;
78508;SDS011;67802;50.846;7.958;2024-03-17T09:42:03;2.78;;;1.00;;
78508;SDS011;67802;50.846;7.958;2024-03-17T09:44:30;3.10;;;1.20;;
78508;SDS011;67802;50.846;7.958;2024-03-17T09:46:59;2.67;;;1.20;;
78508;SDS011;67802;50.846;7.958;2024-03-17T09:49:25;4.72;;;1.35;;
78508;SDS011;67802;50.846;7.958;2024-03-17T09:51:51;2.85;;;1.20;;
78508;SDS011;67802;50.846;7.958;2024-03-17T09:54:20;2.85;;;1.17;;
78508;SDS011;67802;50.846;7.958;2024-03-17T09:56:46;2.50;;;1.20;;
78508;SDS011;67802;50.846;7.958;2024-03-17T09:59:11;2.35;;;1.10;;
78508;SDS011;67802;50.846;7.958;2024-03-17T10:01:37;2.38;;;1.20;;
78508;SDS011;67802;50.846;7.958;2024-03-17T10:04:02;2.35;;;1.17;;
78508;SDS011;67802;50.846;7.958;2024-03-17T10:06:35;2.40;;;1.20;;
78508;SDS011;67802;50.846;7.958;2024-03-17T10:09:10;2.08;;;1.05;;
78508;SDS011;67802;50.846;7.958;2024-03-17T10:11:46;2.55;;;1.10;;
78508;SDS011;67802;50.846;7.958;2024-03-17T10:14:12;3.08;;;1.10;;
78508;SDS011;67802;50.846;7.958;2024-03-17T10:16:42;3.10;;;1.20;;
78508;SDS011;67802;50.846;7.958;2024-03-17T10:21:46;2.15;;;1.10;;
78508;SDS011;67802;50.846;7.958;2024-03-17T10:26:54;2.60;;;1.05;;
78508;SDS011;67802;50.846;7.958;2024-03-17T10:31:55;2.28;;;1.10;;
78508;SDS011;67802;50.846;7.958;2024-03-17T10:34:27;1.70;;;0.90;;
78508;SDS011;67802;50.846;7.958;2024-03-17T10:39:48;3.30;;;1.23;;
78508;SDS011;67802;50.846;7.958;2024-03-17T10:42:15;2.25;;;1.05;;
78508;SDS011;67802;50.846;7.958;2024-03-17T10:44:53;2.35;;;1.00;;
78508;SDS011;67802;50.846;7.958;2024-03-17T10:47:21;2.35;;;1.00;;
78508;SDS011;67802;50.846;7.958;2024-03-17T10:49:48;1.98;;;1.00;;
78508;SDS011;67802;50.846;7.958;2024-03-17T10:52:17;2.78;;;1.02;;
78508;SDS011;67802;50.846;7.958;2024-03-17T10:54:47;3.25;;;1.17;;
78508;SDS011;67802;50.846;7.958;2024-03-17T11:00:05;3.38;;;1.00;;
78508;SDS011;67802;50.846;7.958;2024-03-17T11:02:33;2.53;;;1.00;;
78508;SDS011;67802;50.846;7.958;2024-03-17T11:05:04;2.63;;;1.17;;
78508;SDS011;67802;50.846;7.958;2024-03-17T11:07:33;2.03;;;0.90;;
78508;SDS011;67802;50.846;7.958;2024-03-17T11:10:02;1.73;;;1.00;;
78508;SDS011;67802;50.846;7.958;2024-03-17T11:17:50;2.47;;;0.95;;
78508;SDS011;67802;50.846;7.958;2024-03-17T11:22:50;3.13;;;1.05;;
78508;SDS011;67802;50.846;7.958;2024-03-17T11:27:58;2.20;;;1.10;;
78508;SDS011;67802;50.846;7.958;2024-03-17T11:30:43;2.10;;;1.00;;
78508;SDS011;67802;50.846;7.958;2024-03-17T11:38:51;2.53;;;1.00;;
78508;SDS011;67802;50.846;7.958;2024-03-17T11:41:52;1.95;;;1.02;;
78508;SDS011;67802;50.846;7.958;2024-03-17T11:49:24;2.22;;;1.10;;
78508;SDS011;67802;50.846;7.958;2024-03-17T11:51:54;1.98;;;0.93;;
78508;SDS011;67802;50.846;7.958;2024-03-17T11:54:22;2.58;;;1.00;;
78508;SDS011;67802;50.846;7.958;2024-03-17T11:56:50;2.20;;;1.00;;
78508;SDS011;67802;50.846;7.958;2024-03-17T11:59:20;1.45;;;0.95;;
78508;SDS011;67802;50.846;7.958;2024-03-17T12:01:47;2.35;;;1.05;;
78508;SDS011;67802;50.846;7.958;2024-03-17T12:04:19;2.17;;;0.93;;
78508;SDS011;67802;50.846;7.958;2024-03-17T12:06:47;1.92;;;0.90;;
78508;SDS011;67802;50.846;7.958;2024-03-17T12:11:50;2.13;;;1.00;;
78508;SDS011;67802;50.846;7.958;2024-03-17T12:14:23;2.70;;;1.08;;
78508;SDS011;67802;50.846;7.958;2024-03-17T12:16:57;1.88;;;1.00;;
78508;SDS011;67802;50.846;7.958;2024-03-17T12:19:26;1.77;;;0.90;;
78508;SDS011;67802;50.846;7.958;2024-03-17T12:21:53;1.60;;;0.90;;
78508;SDS011;67802;50.846;7.958;2024-03-17T12:24:23;2.03;;;1.00;;
78508;SDS011;67802;50.846;7.958;2024-03-17T12:26:51;2.75;;;1.17;;
78508;SDS011;67802;50.846;7.958;2024-03-17T12:29:28;2.10;;;1.00;;
78508;SDS011;67802;50.846;7.958;2024-03-17T12:32:01;2.28;;;0.90;;
78508;SDS011;67802;50.846;7.958;2024-03-17T12:34:33;2.17;;;0.93;;
78508;SDS011;67802;50.846;7.958;2024-03-17T12:36:59;2.35;;;1.10;;
78508;SDS011;67802;50.846;7.958;2024-03-17T12:39:26;1.65;;;0.98;;
78508;SDS011;67802;50.846;7.958;2024-03-17T12:42:03;2.55;;;1.10;;
78508;SDS011;67802;50.846;7.958;2024-03-17T12:44:30;2.17;;;0.90;;
78508;SDS011;67802;50.846;7.958;2024-03-17T12:46:56;1.85;;;1.00;;
78508;SDS011;67802;50.846;7.958;2024-03-17T12:49:25;2.00;;;1.00;;
78508;SDS011;67802;50.846;7.958;2024-03-17T12:51:51;1.83;;;1.10;;
78508;SDS011;67802;50.846;7.958;2024-03-17T12:54:18;2.15;;;1.08;;
78508;SDS011;67802;50.846;7.958;2024-03-17T12:56:45;2.08;;;0.88;;
78508;SDS011;67802;50.846;7.958;2024-03-17T12:59:42;1.65;;;1.00;;
78508;SDS011;67802;50.846;7.958;2024-03-17T13:02:26;2.25;;;1.00;;
78508;SDS011;67802;50.846;7.958;2024-03-17T13:07:45;3.47;;;1.15;;
78508;SDS011;67802;50.846;7.958;2024-03-17T13:10:20;2.35;;;1.17;;
78508;SDS011;67802;50.846;7.958;2024-03-17T13:12:46;2.78;;;1.13;;
78508;SDS011;67802;50.846;7.958;2024-03-17T13:15:16;2.13;;;0.90;;
78508;SDS011;67802;50.846;7.958;2024-03-17T13:17:42;2.60;;;1.00;;
78508;SDS011;67802;50.846;7.958;2024-03-17T13:20:14;1.85;;;1.02;;
78508;SDS011;67802;50.846;7.958;2024-03-17T13:22:44;2.17;;;1.05;;
78508;SDS011;67802;50.846;7.958;2024-03-17T13:25:13;2.75;;;1.10;;
78508;SDS011;67802;50.846;7.958;2024-03-17T13:27:41;2.85;;;1.08;;
78508;SDS011;67802;50.846;7.958;2024-03-17T13:30:07;2.90;;;1.20;;
78508;SDS011;67802;50.846;7.958;2024-03-17T13:32:34;3.03;;;1.20;;
78508;SDS011;67802;50.846;7.958;2024-03-17T13:35:00;2.13;;;1.10;;
78508;SDS011;67802;50.846;7.958;2024-03-17T13:37:25;2.03;;;1.10;;
78508;SDS011;67802;50.846;7.958;2024-03-17T13:39:51;2.67;;;1.13;;
78508;SDS011;67802;50.846;7.958;2024-03-17T13:42:16;2.60;;;1.10;;
78508;SDS011;67802;50.846;7.958;2024-03-17T13:44:41;3.05;;;1.17;;
78508;SDS011;67802;50.846;7.958;2024-03-17T13:47:07;2.60;;;1.02;;
78508;SDS011;67802;50.846;7.958;2024-03-17T13:49:33;3.97;;;1.40;;
78508;SDS011;67802;50.846;7.958;2024-03-17T13:52:00;3.35;;;1.27;;
78508;SDS011;67802;50.846;7.958;2024-03-17T13:54:25;2.60;;;1.20;;
78508;SDS011;67802;50.846;7.958;2024-03-17T13:56:50;2.72;;;1.17;;
78508;SDS011;67802;50.846;7.958;2024-03-17T13:59:16;3.33;;;1.23;;
78508;SDS011;67802;50.846;7.958;2024-03-17T14:01:42;2.70;;;1.27;;
78508;SDS011;67802;50.846;7.958;2024-03-17T14:04:14;3.33;;;1.40;;
78508;SDS011;67802;50.846;7.958;2024-03-17T14:06:42;3.95;;;1.40;;
78508;SDS011;67802;50.846;7.958;2024-03-17T14:09:11;3.15;;;1.33;;
78508;SDS011;67802;50.846;7.958;2024-03-17T14:11:42;2.88;;;1.20;;
78508;SDS011;67802;50.846;7.958;2024-03-17T14:14:08;3.88;;;1.48;;
78508;SDS011;67802;50.846;7.958;2024-03-17T14:16:33;3.88;;;1.50;;
78508;SDS011;67802;50.846;7.958;2024-03-17T14:18:59;3.30;;;1.40;;
78508;SDS011;67802;50.846;7.958;2024-03-17T14:21:25;3.60;;;1.45;;
78508;SDS011;67802;50.846;7.958;2024-03-17T14:23:51;3.92;;;1.20;;
78508;SDS011;67802;50.846;7.958;2024-03-17T14:26:17;3.03;;;1.30;;
78508;SDS011;67802;50.846;7.958;2024-03-17T14:28:42;3.92;;;1.30;;
78508;SDS011;67802;50.846;7.958;2024-03-17T14:31:08;3.75;;;1.30;;
78508;SDS011;67802;50.846;7.958;2024-03-17T14:33:33;3.38;;;1.40;;
78508;SDS011;67802;50.846;7.958;2024-03-17T14:35:58;2.67;;;1.33;;
78508;SDS011;67802;50.846;7.958;2024-03-17T14:38:23;3.85;;;1.40;;
78508;SDS011;67802;50.846;7.958;2024-03-17T14:40:52;3.72;;;1.40;;
78508;SDS011;67802;50.846;7.958;2024-03-17T14:43:18;3.70;;;1.50;;
78508;SDS011;67802;50.846;7.958;2024-03-17T14:45:44;3.00;;;1.25;;
78508;SDS011;67802;50.846;7.958;2024-03-17T14:48:10;3.53;;;1.38;;
78508;SDS011;67802;50.846;7.958;2024-03-17T14:50:36;3.72;;;1.52;;
78508;SDS011;67802;50.846;7.958;2024-03-17T14:53:01;4.20;;;1.43;;
78508;SDS011;67802;50.846;7.958;2024-03-17T14:55:27;3.10;;;1.40;;
78508;SDS011;67802;50.846;7.958;2024-03-17T14:57:53;3.58;;;1.60;;
78508;SDS011;67802;50.846;7.958;2024-03-17T15:00:19;3.60;;;1.60;;
78508;SDS011;67802;50.846;7.958;2024-03-17T15:02:45;3.72;;;1.50;;
78508;SDS011;67802;50.846;7.958;2024-03-17T15:05:12;3.78;;;1.35;;
78508;SDS011;67802;50.846;7.958;2024-03-17T15:07:39;3.20;;;1.33;;
78508;SDS011;67802;50.846;7.958;2024-03-17T15:10:05;3.35;;;1.50;;
78508;SDS011;67802;50.846;7.958;2024-03-17T15:12:31;3.20;;;1.40;;
78508;SDS011;67802;50.846;7.958;2024-03-17T15:14:57;3.30;;;1.45;;
78508;SDS011;67802;50.846;7.958;2024-03-17T15:17:22;3.65;;;1.65;;
78508;SDS011;67802;50.846;7.958;2024-03-17T15:19:47;3.33;;;1.33;;
78508;SDS011;67802;50.846;7.958;2024-03-17T15:22:13;3.50;;;1.30;;
78508;SDS011;67802;50.846;7.958;2024-03-17T15:24:38;4.05;;;1.67;;
78508;SDS011;67802;50.846;7.958;2024-03-17T15:27:04;3.60;;;1.48;;
78508;SDS011;67802;50.846;7.958;2024-03-17T15:29:30;3.42;;;1.38;;